createdAt,value
2018-07-04T04:00:53.910Z,4.20
2018-07-04T04:01:53.790Z,9.60
2018-07-04T04:03:46.474Z,9.70
2018-07-04T04:04:46.370Z,9.60
2018-07-04T04:06:39.073Z,9.90
2018-07-04T04:07:38.949Z,9.60
2018-07-04T04:09:31.628Z,10.10
2018-07-04T04:10:31.529Z,10.20
2018-07-04T04:12:24.227Z,9.50
2018-07-04T04:13:24.101Z,10.10
2018-07-04T04:15:16.785Z,10.60
2018-07-04T04:16:16.680Z,10.10
2018-07-04T04:18:09.376Z,10.20
2018-07-04T04:19:09.260Z,9.70
2018-07-04T04:21:01.940Z,10.10
2018-07-04T04:22:01.836Z,10.40
2018-07-04T04:23:54.533Z,9.50
2018-07-04T04:24:54.411Z,10.20
2018-07-04T04:26:47.119Z,10.00
2018-07-04T04:27:46.985Z,9.90
2018-07-04T04:29:39.672Z,9.50
2018-07-04T04:30:39.564Z,9.60
2018-07-04T04:32:32.268Z,10.30
2018-07-04T04:33:32.140Z,9.80
2018-07-04T04:35:24.824Z,10.80
2018-07-04T04:36:24.732Z,10.10
2018-07-04T04:38:17.421Z,10.20
2018-07-04T04:39:17.299Z,10.50
2018-07-04T04:41:09.982Z,10.20
2018-07-04T04:42:09.879Z,9.70
2018-07-04T04:44:02.585Z,9.90
2018-07-04T04:45:02.460Z,10.20
2018-07-04T04:46:55.138Z,10.80
2018-07-04T04:47:55.040Z,10.40
2018-07-04T04:49:47.738Z,10.10
2018-07-04T04:50:47.620Z,10.30
2018-07-04T04:52:40.304Z,10.50
2018-07-04T04:53:40.193Z,10.30
2018-07-04T04:55:32.904Z,10.20
2018-07-04T04:56:32.911Z,10.00
2018-07-04T04:58:25.706Z,10.80
2018-07-04T04:59:25.358Z,10.70
2018-07-04T05:01:18.060Z,10.00
2018-07-04T05:02:17.961Z,9.70
2018-07-04T05:04:10.623Z,9.50
2018-07-04T05:05:10.522Z,10.30
2018-07-04T05:07:03.259Z,10.00
2018-07-04T05:08:03.106Z,10.00
2018-07-04T05:09:55.807Z,10.00
2018-07-04T05:10:55.691Z,9.90
2018-07-04T05:12:48.372Z,10.60
2018-07-04T05:13:48.272Z,10.50
2018-07-04T05:15:41.002Z,9.40
2018-07-04T05:16:40.843Z,9.90
2018-07-04T05:18:33.529Z,10.40
2018-07-04T05:19:33.432Z,10.10
2018-07-04T05:21:26.132Z,9.70
2018-07-04T05:22:26.015Z,9.90
2018-07-04T05:24:18.702Z,10.40
2018-07-04T05:25:18.590Z,10.40
2018-07-04T05:27:11.291Z,9.60
2018-07-04T05:28:11.192Z,10.40
2018-07-04T05:30:03.858Z,10.20
2018-07-04T05:31:03.753Z,9.90
2018-07-04T05:32:56.459Z,9.80
2018-07-04T05:33:56.339Z,9.90
2018-07-04T05:35:49.040Z,10.10
2018-07-04T05:36:48.927Z,10.10
2018-07-04T05:38:41.601Z,10.40
2018-07-04T05:39:41.506Z,10.00
2018-07-04T05:41:34.210Z,9.80
2018-07-04T05:42:34.089Z,9.80
2018-07-04T05:44:26.786Z,10.50
2018-07-04T05:45:26.677Z,9.60
2018-07-04T05:47:19.377Z,9.00
2018-07-04T05:48:19.257Z,9.20
2018-07-04T05:50:11.945Z,9.10
2018-07-04T05:51:11.844Z,9.70
2018-07-04T05:53:04.544Z,8.90
2018-07-04T05:54:04.423Z,9.20
2018-07-04T05:55:57.113Z,9.20
2018-07-04T05:56:57.016Z,8.80
2018-07-04T05:58:49.718Z,8.20
2018-07-04T05:59:49.789Z,8.60
2018-07-04T06:01:42.306Z,9.20
2018-07-04T06:02:42.238Z,8.60
2018-07-04T06:04:34.893Z,8.40
2018-07-04T06:05:34.788Z,8.80
2018-07-04T06:07:27.500Z,8.30
2018-07-04T06:08:27.378Z,8.20
2018-07-04T06:10:20.073Z,8.20
2018-07-04T06:11:19.973Z,7.70
2018-07-04T06:13:12.672Z,8.40
2018-07-04T06:14:12.559Z,7.80
2018-07-04T06:16:05.244Z,7.50
2018-07-04T06:17:05.161Z,7.30
2018-07-04T06:18:57.853Z,7.70
2018-07-04T06:19:57.735Z,7.60
2018-07-04T06:21:50.437Z,7.40
2018-07-04T06:22:50.334Z,7.70
2018-07-04T06:24:43.106Z,8.00
2018-07-04T06:25:42.931Z,7.70
2018-07-04T06:27:35.647Z,7.80
2018-07-04T06:28:35.529Z,7.80
2018-07-04T06:30:28.220Z,7.90
2018-07-04T06:31:28.124Z,7.90
2018-07-04T06:33:20.858Z,8.50
2018-07-04T06:34:20.724Z,8.60
2018-07-04T06:36:13.417Z,8.30
2018-07-04T06:37:13.321Z,8.00
2018-07-04T06:39:06.090Z,8.30
2018-07-04T06:40:05.916Z,8.10
2018-07-04T06:41:58.604Z,8.40
2018-07-04T06:42:58.506Z,8.00
2018-07-04T06:44:51.223Z,8.00
2018-07-04T06:45:51.104Z,7.80
2018-07-04T06:47:43.805Z,8.30
2018-07-04T06:48:43.702Z,8.40
2018-07-04T06:50:36.412Z,7.70
2018-07-04T06:51:36.299Z,8.10
2018-07-04T06:53:29.004Z,7.70
2018-07-04T06:54:28.952Z,7.90
2018-07-04T06:56:21.587Z,8.50
2018-07-04T06:57:21.485Z,8.60
2018-07-04T06:59:14.197Z,8.70
2018-07-04T07:00:14.071Z,8.90
2018-07-04T07:02:06.767Z,8.30
2018-07-04T07:03:06.672Z,9.10
2018-07-04T07:04:59.380Z,8.40
2018-07-04T07:05:59.261Z,8.00
2018-07-04T07:07:51.990Z,8.10
2018-07-04T07:08:51.864Z,8.50
2018-07-04T07:10:44.555Z,8.80
2018-07-04T07:11:44.450Z,8.30
2018-07-04T07:13:37.170Z,8.10
2018-07-04T07:14:37.050Z,8.00
2018-07-04T07:16:29.738Z,8.50
2018-07-04T07:17:29.644Z,8.10
2018-07-04T07:19:22.349Z,8.10
2018-07-04T07:20:22.234Z,8.40
2018-07-04T07:22:14.932Z,8.00
2018-07-04T07:23:14.841Z,8.10
2018-07-04T07:25:07.554Z,8.10
2018-07-04T07:26:07.444Z,8.00
2018-07-04T07:28:00.138Z,7.70
2018-07-04T07:29:00.046Z,7.30
2018-07-04T07:30:52.766Z,6.60
2018-07-04T07:31:52.650Z,6.10
2018-07-04T07:33:45.350Z,6.50
2018-07-04T07:34:45.252Z,7.10
2018-07-04T07:36:37.970Z,7.30
2018-07-04T07:37:37.859Z,7.40
2018-07-04T07:39:30.567Z,7.00
2018-07-04T07:40:30.474Z,6.60
2018-07-04T07:42:23.191Z,6.40
2018-07-04T07:43:23.074Z,5.90
2018-07-04T07:45:15.802Z,5.50
2018-07-04T07:46:15.684Z,5.40
2018-07-04T07:48:08.385Z,5.10
2018-07-04T07:49:08.292Z,5.10
2018-07-04T07:51:01.019Z,5.60
2018-07-04T07:52:00.903Z,4.90
2018-07-04T07:53:53.614Z,4.90
2018-07-04T07:54:53.521Z,5.10
2018-07-04T07:56:46.236Z,5.80
2018-07-04T07:57:46.127Z,5.70
2018-07-04T07:59:38.822Z,5.50
2018-07-04T08:00:38.736Z,5.60
2018-07-04T08:02:31.449Z,5.50
2018-07-04T08:03:31.335Z,5.10
2018-07-04T08:05:24.037Z,5.30
2018-07-04T08:06:23.940Z,5.10
2018-07-04T08:08:16.656Z,4.70
2018-07-04T08:09:16.548Z,4.80
2018-07-04T08:11:09.275Z,5.50
2018-07-04T08:12:09.149Z,5.10
2018-07-04T08:14:01.850Z,4.90
2018-07-04T08:15:01.769Z,5.10
2018-07-04T08:16:54.488Z,5.30
2018-07-04T08:17:54.368Z,4.80
2018-07-04T08:19:47.079Z,5.10
2018-07-04T08:20:46.984Z,4.90
2018-07-04T08:22:39.703Z,4.50
2018-07-04T08:23:39.594Z,5.10
2018-07-04T08:25:32.308Z,4.60
2018-07-04T08:26:32.205Z,4.50
2018-07-04T08:28:24.926Z,4.70
2018-07-04T08:29:24.817Z,4.80
2018-07-04T08:31:17.523Z,4.80
2018-07-04T08:32:17.436Z,5.10
2018-07-04T08:34:10.157Z,4.80
2018-07-04T08:35:10.052Z,4.60
2018-07-04T08:37:02.761Z,4.80
2018-07-04T08:38:02.671Z,4.40
2018-07-04T08:39:55.556Z,4.10
2018-07-04T08:40:55.630Z,4.50
2018-07-04T08:43:48.024Z,4.70
2018-07-04T08:45:40.755Z,4.80
2018-07-04T08:46:40.653Z,4.40
2018-07-04T08:48:33.365Z,5.00
2018-07-04T08:49:33.278Z,4.90
2018-07-04T08:51:26.012Z,4.60
2018-07-04T08:52:25.901Z,4.50
2018-07-04T08:54:18.645Z,4.80
2018-07-04T08:55:18.533Z,5.20
2018-07-04T08:57:11.245Z,4.90
2018-07-04T08:58:11.156Z,4.70
2018-07-04T09:00:03.877Z,4.30
2018-07-04T09:01:03.770Z,4.30
2018-07-04T09:02:56.476Z,5.20
2018-07-04T09:03:56.388Z,4.30
2018-07-04T09:05:49.116Z,4.80
2018-07-04T09:06:49.001Z,4.60
2018-07-04T09:08:41.703Z,5.20
2018-07-04T09:09:41.614Z,4.90
2018-07-04T09:11:34.359Z,5.20
2018-07-04T09:12:34.220Z,4.70
2018-07-04T09:14:26.923Z,4.10
2018-07-04T09:15:26.830Z,4.40
2018-07-04T09:17:19.627Z,4.10
2018-07-04T09:18:19.435Z,3.90
2018-07-04T09:20:12.137Z,4.30
2018-07-04T09:21:12.043Z,4.40
2018-07-04T09:23:04.758Z,4.30
2018-07-04T09:24:04.692Z,4.10
2018-07-04T09:25:57.344Z,4.60
2018-07-04T09:26:57.254Z,4.60
2018-07-04T09:28:54.596Z,4.60
2018-07-04T09:29:49.857Z,4.40
2018-07-04T09:31:42.584Z,4.60
2018-07-04T09:32:42.501Z,4.00
2018-07-04T09:34:35.163Z,4.60
2018-07-04T09:35:35.075Z,4.20
2018-07-04T09:37:27.788Z,4.70
2018-07-04T09:38:27.685Z,4.40
2018-07-04T09:40:20.377Z,4.10
2018-07-04T09:41:20.279Z,4.10
2018-07-04T09:43:12.997Z,4.60
2018-07-04T09:44:12.886Z,4.80
2018-07-04T09:46:05.582Z,4.50
2018-07-04T09:47:05.485Z,4.90
2018-07-04T09:48:58.205Z,4.30
2018-07-04T09:49:58.263Z,4.10
2018-07-04T09:51:50.785Z,4.40
2018-07-04T09:52:50.694Z,4.40
2018-07-04T09:54:43.408Z,5.20
2018-07-04T09:55:43.291Z,5.60
2018-07-04T09:57:35.997Z,4.30
2018-07-04T09:58:35.905Z,4.20
2018-07-04T10:00:28.630Z,4.80
2018-07-04T10:01:28.506Z,4.80
2018-07-04T10:03:21.206Z,4.50
2018-07-04T10:04:21.108Z,4.70
2018-07-04T10:06:13.824Z,4.60
2018-07-04T10:07:13.708Z,4.50
2018-07-04T10:09:06.410Z,4.60
2018-07-04T10:10:06.311Z,4.40
2018-07-04T10:11:59.182Z,4.50
2018-07-04T10:12:58.921Z,4.90
2018-07-04T10:14:51.637Z,4.00
2018-07-04T10:15:51.521Z,4.50
2018-07-04T10:17:44.222Z,5.00
2018-07-04T10:18:44.128Z,5.00
2018-07-04T10:20:36.843Z,4.40
2018-07-04T10:21:36.730Z,4.40
2018-07-04T10:23:29.424Z,4.00
2018-07-04T10:24:29.345Z,4.00
2018-07-04T10:26:22.044Z,4.40
2018-07-04T10:27:21.929Z,4.60
2018-07-04T10:29:14.633Z,3.60
2018-07-04T10:30:14.537Z,3.90
2018-07-04T10:32:07.250Z,4.20
2018-07-04T10:33:07.140Z,4.30
2018-07-04T10:34:59.838Z,4.20
2018-07-04T10:35:59.741Z,4.30
2018-07-04T10:37:52.461Z,4.20
2018-07-04T10:38:52.344Z,4.20
2018-07-04T10:40:45.039Z,4.70
2018-07-04T10:41:44.947Z,4.50
2018-07-04T10:43:37.660Z,4.20
2018-07-04T10:44:37.548Z,4.40
2018-07-04T10:46:31.235Z,4.00
2018-07-04T10:47:31.142Z,4.50
2018-07-04T10:49:23.863Z,4.00
2018-07-04T10:50:23.745Z,3.80
2018-07-04T10:52:16.476Z,4.20
2018-07-04T10:53:16.355Z,4.20
2018-07-04T10:55:09.055Z,4.60
2018-07-04T10:56:08.960Z,5.20
2018-07-04T10:58:01.676Z,4.30
2018-07-04T10:59:01.564Z,4.20
2018-07-04T11:00:54.258Z,3.80
2018-07-04T11:01:54.172Z,4.00
2018-07-04T11:03:46.880Z,4.50
2018-07-04T11:04:46.761Z,4.30
2018-07-04T11:06:39.467Z,4.60
2018-07-04T11:07:39.382Z,4.00
2018-07-04T11:09:32.085Z,4.40
2018-07-04T11:10:31.970Z,4.70
2018-07-04T11:12:24.678Z,4.20
2018-07-04T11:13:24.580Z,4.40
2018-07-04T11:15:17.443Z,3.80
2018-07-04T11:16:17.188Z,3.80
2018-07-04T11:18:09.888Z,3.90
2018-07-04T11:19:09.784Z,3.90
2018-07-04T11:21:02.516Z,4.40
2018-07-04T11:22:02.413Z,4.90
2018-07-04T11:23:55.090Z,3.90
2018-07-04T11:24:54.989Z,4.20
2018-07-04T11:26:47.710Z,4.30
2018-07-04T11:27:47.592Z,4.40
2018-07-04T11:29:40.319Z,4.20
2018-07-04T11:30:40.194Z,3.60
2018-07-04T11:32:32.891Z,3.80
2018-07-04T11:33:32.795Z,3.90
2018-07-04T11:35:25.509Z,3.80
2018-07-04T11:36:25.429Z,3.70
2018-07-04T11:38:18.097Z,4.00
2018-07-04T11:39:18.007Z,4.10
2018-07-04T11:41:10.716Z,3.50
2018-07-04T11:42:10.601Z,3.90
2018-07-04T11:44:03.300Z,3.50
2018-07-04T11:45:03.205Z,3.70
2018-07-04T11:46:55.926Z,3.80
2018-07-04T11:47:55.807Z,3.50
2018-07-04T11:49:48.504Z,4.10
2018-07-04T11:50:48.408Z,3.60
2018-07-04T11:52:41.127Z,3.80
2018-07-04T11:53:41.021Z,3.40
2018-07-04T11:55:33.712Z,3.70
2018-07-04T11:56:33.678Z,3.70
2018-07-04T11:58:26.338Z,3.40
2018-07-04T11:59:26.227Z,3.80
2018-07-04T12:01:18.947Z,3.40
2018-07-04T12:02:18.829Z,3.70
2018-07-04T12:04:11.528Z,4.30
2018-07-04T12:05:11.431Z,4.50
2018-07-04T12:07:04.157Z,3.70
2018-07-04T12:08:04.034Z,4.40
2018-07-04T12:09:56.735Z,3.70
2018-07-04T12:10:56.684Z,3.90
2018-07-04T12:12:49.344Z,3.90
2018-07-04T12:13:49.237Z,4.00
2018-07-04T12:15:41.936Z,4.00
2018-07-04T12:16:41.839Z,3.90
2018-07-04T12:18:34.557Z,4.10
2018-07-04T12:19:34.441Z,4.40
2018-07-04T12:21:27.138Z,4.20
2018-07-04T12:22:27.046Z,4.10
2018-07-04T12:24:19.764Z,4.00
2018-07-04T12:25:19.645Z,4.20
2018-07-04T12:27:12.344Z,3.80
2018-07-04T12:28:12.252Z,3.90
2018-07-04T12:30:04.965Z,3.80
2018-07-04T12:31:04.853Z,3.70
2018-07-04T12:32:57.580Z,4.00
2018-07-04T12:33:57.461Z,3.80
2018-07-04T12:35:50.155Z,3.70
2018-07-04T12:36:50.065Z,3.90
2018-07-04T12:38:42.782Z,3.80
2018-07-04T12:39:42.676Z,4.20
2018-07-04T12:41:35.379Z,4.30
2018-07-04T12:42:35.277Z,4.00
2018-07-04T12:44:27.996Z,4.20
2018-07-04T12:45:27.886Z,4.00
2018-07-04T12:47:20.616Z,3.90
2018-07-04T12:48:20.528Z,4.00
2018-07-04T12:50:13.204Z,3.80
2018-07-04T12:51:13.138Z,4.20
2018-07-04T12:53:05.807Z,3.60
2018-07-04T12:54:05.837Z,3.90
2018-07-04T12:55:58.386Z,3.90
2018-07-04T12:56:58.295Z,3.50
2018-07-04T12:58:51.008Z,3.70
2018-07-04T12:59:50.899Z,4.20
2018-07-04T13:01:43.600Z,3.50
2018-07-04T13:02:43.505Z,3.80
2018-07-04T13:04:36.226Z,4.10
2018-07-04T13:05:36.112Z,4.10
2018-07-04T13:07:28.808Z,5.50
2018-07-04T13:08:28.711Z,4.70
2018-07-04T13:10:21.432Z,4.20
2018-07-04T13:11:21.307Z,3.90
2018-07-04T13:13:14.004Z,5.00
2018-07-04T13:14:13.910Z,5.30
2018-07-04T13:16:06.678Z,5.20
2018-07-04T13:17:06.511Z,4.50
2018-07-04T13:18:59.208Z,4.30
2018-07-04T13:19:59.118Z,4.70
2018-07-04T13:21:51.831Z,4.10
2018-07-04T13:22:51.718Z,4.10
2018-07-04T13:24:44.445Z,3.90
2018-07-04T13:25:44.366Z,3.70
2018-07-04T13:27:37.016Z,3.70
2018-07-04T13:28:36.921Z,4.20
2018-07-04T13:30:29.641Z,4.00
2018-07-04T13:31:29.521Z,4.00
2018-07-04T13:33:22.226Z,3.90
2018-07-04T13:34:22.135Z,4.00
2018-07-04T13:36:14.852Z,4.10
2018-07-04T13:37:14.740Z,4.00
2018-07-04T13:39:07.428Z,3.50
2018-07-04T13:40:07.338Z,4.20
2018-07-04T13:42:00.055Z,3.10
2018-07-04T13:42:59.953Z,3.50
2018-07-04T13:44:52.637Z,3.30
2018-07-04T13:45:52.543Z,3.50
2018-07-04T13:47:45.253Z,3.80
2018-07-04T13:48:45.146Z,3.30
2018-07-04T13:50:37.834Z,3.70
2018-07-04T13:51:37.742Z,3.80
2018-07-04T13:53:30.462Z,3.60
2018-07-04T13:54:30.346Z,3.40
2018-07-04T13:56:23.057Z,3.80
2018-07-04T13:57:22.956Z,3.80
2018-07-04T13:59:15.677Z,3.70
2018-07-04T14:00:15.566Z,3.40
2018-07-04T14:02:08.292Z,2.80
2018-07-04T14:03:08.218Z,3.60
2018-07-04T14:05:00.858Z,3.80
2018-07-04T14:06:00.770Z,3.30
2018-07-04T14:07:53.488Z,3.30
2018-07-04T14:08:53.376Z,3.60
2018-07-04T14:10:46.219Z,3.90
2018-07-04T14:11:45.972Z,3.90
2018-07-04T14:13:38.697Z,3.80
2018-07-04T14:14:38.587Z,3.50
2018-07-04T14:16:31.279Z,3.30
2018-07-04T14:17:31.186Z,3.30
2018-07-04T14:19:23.903Z,3.70
2018-07-04T14:20:23.791Z,3.70
2018-07-04T14:22:16.496Z,3.40
2018-07-04T14:23:16.401Z,3.40
2018-07-04T14:25:09.130Z,3.10
2018-07-04T14:26:09.007Z,3.40
2018-07-04T14:28:02.704Z,3.40
2018-07-04T14:29:02.610Z,3.20
2018-07-04T14:30:55.324Z,3.30
2018-07-04T14:31:55.216Z,3.70
2018-07-04T14:33:47.913Z,3.70
2018-07-04T14:34:47.816Z,4.00
2018-07-04T14:36:40.537Z,3.40
2018-07-04T14:37:40.420Z,3.60
2018-07-04T14:39:33.122Z,3.70
2018-07-04T14:40:33.026Z,3.70
2018-07-04T14:42:25.746Z,3.70
2018-07-04T14:43:25.633Z,3.80
2018-07-04T14:45:18.353Z,3.60
2018-07-04T14:46:18.241Z,3.30
2018-07-04T14:48:10.943Z,3.60
2018-07-04T14:49:10.849Z,3.60
2018-07-04T14:51:03.568Z,4.00
2018-07-04T14:52:03.488Z,3.90
2018-07-04T14:53:56.159Z,3.60
2018-07-04T14:54:56.070Z,4.00
2018-07-04T14:56:48.782Z,3.40
2018-07-04T14:57:48.767Z,3.80
2018-07-04T14:59:41.374Z,3.80
2018-07-04T15:00:41.277Z,3.50
2018-07-04T15:02:34.014Z,3.70
2018-07-04T15:03:33.897Z,3.90
2018-07-04T15:05:26.591Z,3.50
2018-07-04T15:06:26.496Z,3.80
2018-07-04T15:08:19.237Z,3.80
2018-07-04T15:09:19.123Z,3.90
2018-07-04T15:11:11.844Z,3.60
2018-07-04T15:12:11.731Z,3.70
2018-07-04T15:14:04.433Z,3.50
2018-07-04T15:15:04.339Z,3.30
2018-07-04T15:16:57.059Z,3.70
2018-07-04T15:17:56.942Z,3.70
2018-07-04T15:19:49.646Z,3.60
2018-07-04T15:20:49.544Z,3.80
2018-07-04T15:22:42.271Z,3.80
2018-07-04T15:23:42.150Z,3.30
2018-07-04T15:25:34.857Z,3.70
2018-07-04T15:26:34.762Z,3.90
2018-07-04T15:28:27.475Z,4.10
2018-07-04T15:29:27.365Z,3.70
2018-07-04T15:31:20.062Z,4.00
2018-07-04T15:32:19.972Z,4.10
2018-07-04T15:34:12.692Z,4.80
2018-07-04T15:35:12.576Z,4.20
2018-07-04T15:37:05.306Z,4.30
2018-07-04T15:38:05.205Z,4.00
2018-07-04T15:39:57.883Z,4.40
2018-07-04T15:40:57.793Z,4.60
2018-07-04T15:42:50.516Z,4.20
2018-07-04T15:43:50.391Z,4.50
2018-07-04T15:45:43.096Z,4.40
2018-07-04T15:46:43.005Z,4.30
2018-07-04T15:48:35.720Z,4.00
2018-07-04T15:49:35.606Z,3.90
2018-07-04T15:51:28.307Z,4.00
2018-07-04T15:52:28.211Z,4.40
2018-07-04T15:54:20.925Z,4.70
2018-07-04T15:55:20.816Z,4.50
2018-07-04T15:57:13.510Z,4.40
2018-07-04T15:58:13.413Z,4.20
2018-07-04T16:00:06.131Z,4.00
2018-07-04T16:01:06.015Z,4.60
2018-07-04T16:02:58.712Z,4.70
2018-07-04T16:03:58.610Z,5.10
2018-07-04T16:05:51.407Z,4.50
2018-07-04T16:06:51.220Z,4.70
2018-07-04T16:08:43.914Z,4.40
2018-07-04T16:09:43.822Z,4.40
2018-07-04T16:11:36.543Z,5.00
2018-07-04T16:12:36.429Z,4.50
2018-07-04T16:14:29.153Z,4.30
2018-07-04T16:15:29.097Z,4.70
2018-07-04T16:17:21.743Z,4.50
2018-07-04T16:18:21.631Z,4.20
2018-07-04T16:20:14.346Z,4.90
2018-07-04T16:21:14.241Z,4.70
2018-07-04T16:23:06.941Z,4.50
2018-07-04T16:24:06.841Z,4.30
2018-07-04T16:25:59.721Z,4.50
2018-07-04T16:26:59.516Z,4.20
2018-07-04T16:28:52.206Z,4.60
2018-07-04T16:29:52.116Z,4.50
2018-07-04T16:31:44.834Z,4.60
2018-07-04T16:32:44.725Z,4.10
2018-07-04T16:34:37.416Z,4.20
2018-07-04T16:35:37.328Z,4.20
2018-07-04T16:37:30.067Z,4.20
2018-07-04T16:38:29.931Z,4.10
2018-07-04T16:40:22.636Z,4.20
2018-07-04T16:41:22.541Z,4.90
2018-07-04T16:43:15.312Z,4.40
2018-07-04T16:44:15.143Z,4.70
2018-07-04T16:46:07.882Z,4.30
2018-07-04T16:47:07.755Z,4.60
2018-07-04T16:49:00.490Z,4.30
2018-07-04T16:50:00.362Z,4.70
2018-07-04T16:51:53.088Z,4.10
2018-07-04T16:52:52.975Z,4.30
2018-07-04T16:54:45.670Z,4.40
2018-07-04T16:55:45.577Z,4.60
2018-07-04T16:57:38.292Z,4.00
2018-07-04T16:58:38.183Z,4.60
2018-07-04T17:00:30.900Z,3.90
2018-07-04T17:01:30.785Z,4.40
2018-07-04T17:03:23.504Z,3.90
2018-07-04T17:04:23.385Z,3.60
2018-07-04T17:06:16.084Z,3.80
2018-07-04T17:07:15.999Z,3.80
2018-07-04T17:09:08.711Z,4.20
2018-07-04T17:10:08.598Z,4.30
2018-07-04T17:12:01.291Z,4.40
2018-07-04T17:13:01.196Z,4.00
2018-07-04T17:14:53.911Z,4.30
2018-07-04T17:15:53.800Z,4.10
2018-07-04T17:17:46.502Z,4.80
2018-07-04T17:18:46.404Z,4.20
2018-07-04T17:20:39.132Z,4.20
2018-07-04T17:21:39.012Z,5.30
2018-07-04T17:23:31.712Z,4.60
2018-07-04T17:24:31.615Z,4.20
2018-07-04T17:26:24.330Z,5.00
2018-07-04T17:27:24.215Z,4.70
2018-07-04T17:29:16.912Z,4.70
2018-07-04T17:30:16.811Z,5.00
2018-07-04T17:32:09.529Z,4.00
2018-07-04T17:33:09.411Z,4.90
2018-07-04T17:35:02.136Z,4.40
2018-07-04T17:36:02.016Z,4.90
2018-07-04T17:37:54.707Z,4.30
2018-07-04T17:38:54.619Z,4.40
2018-07-04T17:40:47.326Z,4.50
2018-07-04T17:41:47.214Z,4.90
2018-07-04T17:43:39.909Z,5.00
2018-07-04T17:44:39.816Z,4.50
2018-07-04T17:46:32.529Z,4.70
2018-07-04T17:47:32.409Z,4.80
2018-07-04T17:49:25.107Z,4.10
2018-07-04T17:50:25.010Z,4.90
2018-07-04T17:52:17.719Z,4.60
2018-07-04T17:53:17.605Z,4.60
2018-07-04T17:55:10.295Z,4.60
2018-07-04T17:56:10.200Z,4.50
2018-07-04T17:58:02.915Z,4.20
2018-07-04T17:59:02.801Z,4.80
2018-07-04T18:00:55.493Z,4.10
2018-07-04T18:01:55.396Z,4.80
2018-07-04T18:03:48.103Z,4.60
2018-07-04T18:04:47.988Z,4.30
2018-07-04T18:06:40.707Z,4.40
2018-07-04T18:07:40.585Z,4.30
2018-07-04T18:09:33.277Z,4.70
2018-07-04T18:10:33.176Z,4.20
2018-07-04T18:12:25.895Z,4.60
2018-07-04T18:13:25.779Z,4.30
2018-07-04T18:15:18.476Z,4.70
2018-07-04T18:16:18.375Z,4.70
2018-07-04T18:18:11.087Z,4.10
2018-07-04T18:19:10.968Z,4.40
2018-07-04T18:21:03.811Z,4.70
2018-07-04T18:22:03.574Z,4.40
2018-07-04T18:23:56.288Z,4.70
2018-07-04T18:24:56.164Z,4.70
2018-07-04T18:26:48.854Z,4.60
2018-07-04T18:27:48.754Z,5.00
2018-07-04T18:29:41.460Z,4.90
2018-07-04T18:30:41.349Z,4.50
2018-07-04T18:32:34.100Z,5.10
2018-07-04T18:33:33.961Z,4.60
2018-07-04T18:35:26.673Z,4.90
2018-07-04T18:36:26.552Z,5.00
2018-07-04T18:38:19.242Z,4.80
2018-07-04T18:39:19.148Z,4.70
2018-07-04T18:41:11.856Z,4.30
2018-07-04T18:42:11.752Z,4.50
2018-07-04T18:44:04.438Z,4.60
2018-07-04T18:45:04.335Z,4.50
2018-07-04T18:46:57.046Z,3.70
2018-07-04T18:47:56.929Z,3.60
2018-07-04T18:49:49.624Z,4.00
2018-07-04T18:50:49.518Z,3.60
2018-07-04T18:52:42.241Z,3.60
2018-07-04T18:53:42.149Z,3.70
2018-07-04T18:55:34.813Z,3.80
2018-07-04T18:56:34.710Z,3.40
2018-07-04T18:58:27.428Z,3.10
2018-07-04T18:59:27.315Z,3.70
2018-07-04T19:01:20.006Z,3.20
2018-07-04T19:02:19.913Z,3.60
2018-07-04T19:04:12.623Z,3.10
2018-07-04T19:05:12.509Z,3.70
2018-07-04T19:07:05.193Z,3.30
2018-07-04T19:08:05.101Z,3.40
2018-07-04T19:09:57.812Z,3.20
2018-07-04T19:10:57.695Z,3.10
2018-07-04T19:12:50.389Z,3.00
2018-07-04T19:13:50.288Z,3.20
2018-07-04T19:15:42.992Z,3.00
2018-07-04T19:16:42.874Z,2.90
2018-07-04T19:18:35.568Z,3.40
2018-07-04T19:19:35.476Z,2.70
2018-07-04T19:21:28.176Z,2.90
2018-07-04T19:22:28.067Z,3.40
2018-07-04T19:24:20.781Z,2.90
2018-07-04T19:25:20.653Z,3.40
2018-07-04T19:27:13.346Z,3.30
2018-07-04T19:28:13.251Z,3.00
2018-07-04T19:30:05.961Z,3.70
2018-07-04T19:31:05.848Z,3.00
2018-07-04T19:32:58.594Z,3.50
2018-07-04T19:33:58.442Z,2.80
2018-07-04T19:35:51.157Z,3.40
2018-07-04T19:36:51.033Z,3.30
2018-07-04T19:38:43.726Z,3.30
2018-07-04T19:39:43.628Z,3.30
2018-07-04T19:41:36.406Z,3.20
2018-07-04T19:42:36.226Z,2.80
2018-07-04T19:44:28.917Z,3.10
2018-07-04T19:45:28.817Z,3.00
2018-07-04T19:47:21.528Z,3.00
2018-07-04T19:48:21.408Z,3.00
2018-07-04T19:50:14.100Z,2.80
2018-07-04T19:51:14.002Z,3.00
2018-07-04T19:53:06.723Z,3.90
2018-07-04T19:54:06.600Z,3.30
2018-07-04T19:55:59.297Z,2.90
2018-07-04T19:56:59.230Z,3.00
2018-07-04T19:58:51.901Z,3.60
2018-07-04T19:59:51.787Z,2.70
2018-07-04T20:01:44.473Z,3.00
2018-07-04T20:02:44.401Z,2.90
2018-07-04T20:04:37.089Z,2.90
2018-07-04T20:05:36.972Z,3.10
2018-07-04T20:07:29.656Z,2.70
2018-07-04T20:08:29.566Z,2.70
2018-07-04T20:10:22.292Z,3.20
2018-07-04T20:11:22.178Z,3.40
2018-07-04T20:13:14.892Z,3.00
2018-07-04T20:14:14.764Z,2.90
2018-07-04T20:16:07.491Z,3.10
2018-07-04T20:17:07.464Z,2.80
2018-07-04T20:19:00.079Z,3.20
2018-07-04T20:19:59.956Z,2.80
2018-07-04T20:21:52.764Z,3.50
2018-07-04T20:22:52.548Z,3.20
2018-07-04T20:24:45.257Z,3.10
2018-07-04T20:25:45.144Z,3.00
2018-07-04T20:27:37.843Z,3.00
2018-07-04T20:28:37.739Z,2.80
2018-07-04T20:30:30.438Z,2.90
2018-07-04T20:31:30.323Z,2.80
2018-07-04T20:33:23.014Z,3.00
2018-07-04T20:34:22.910Z,3.10
2018-07-04T20:36:15.617Z,3.60
2018-07-04T20:37:15.501Z,3.50
2018-07-04T20:39:08.190Z,3.30
2018-07-04T20:40:08.089Z,3.10
2018-07-04T20:42:00.796Z,3.00
2018-07-04T20:43:00.684Z,2.80
2018-07-04T20:44:53.368Z,3.00
2018-07-04T20:45:53.273Z,2.90
2018-07-04T20:47:45.999Z,3.10
2018-07-04T20:48:45.906Z,3.10
2018-07-04T20:50:38.551Z,3.10
2018-07-04T20:51:38.460Z,2.60
2018-07-04T20:53:31.165Z,2.70
2018-07-04T20:54:31.102Z,2.70
2018-07-04T20:56:23.737Z,2.70
2018-07-04T20:57:23.644Z,3.00
2018-07-04T20:59:16.340Z,2.90
2018-07-04T21:00:16.228Z,2.60
2018-07-04T21:02:08.951Z,2.90
2018-07-04T21:03:08.819Z,2.70
2018-07-04T21:05:01.503Z,2.90
2018-07-04T21:06:01.414Z,2.50
2018-07-04T21:07:54.118Z,2.80
2018-07-04T21:08:53.993Z,2.50
2018-07-04T21:10:46.682Z,2.80
2018-07-04T21:11:46.583Z,2.90
2018-07-04T21:13:39.284Z,2.40
2018-07-04T21:14:39.169Z,2.70
2018-07-04T21:16:31.878Z,2.80
2018-07-04T21:17:31.756Z,3.30
2018-07-04T21:19:24.460Z,2.60
2018-07-04T21:20:24.346Z,2.80
2018-07-04T21:22:17.031Z,2.80
2018-07-04T21:23:16.930Z,2.90
2018-07-04T21:25:09.645Z,3.10
2018-07-04T21:26:09.530Z,3.10
2018-07-04T21:28:02.211Z,2.70
2018-07-04T21:29:02.114Z,2.80
2018-07-04T21:30:54.823Z,2.60
2018-07-04T21:31:54.707Z,2.90
2018-07-04T21:33:47.397Z,3.00
2018-07-04T21:34:47.301Z,2.70
2018-07-04T21:36:40.008Z,3.10
2018-07-04T21:37:39.892Z,3.00
2018-07-04T21:39:32.573Z,2.90
2018-07-04T21:40:32.478Z,3.00
2018-07-04T21:42:25.180Z,2.90
2018-07-04T21:43:25.065Z,3.50
2018-07-04T21:45:17.753Z,3.30
2018-07-04T21:46:17.657Z,3.10
2018-07-04T21:48:10.361Z,3.10
2018-07-04T21:49:10.237Z,2.90
2018-07-04T21:51:02.934Z,4.00
2018-07-04T21:52:02.835Z,4.50
2018-07-04T21:53:55.536Z,4.30
2018-07-04T21:54:55.415Z,4.30
2018-07-04T21:56:48.104Z,3.60
2018-07-04T21:57:48.009Z,4.00
2018-07-04T21:59:40.714Z,3.70
